createdAt,value
2017-09-23T00:00:38.872Z,0.00
2017-09-23T00:02:33.408Z,0.00
2017-09-23T00:03:33.360Z,0.00
2017-09-23T00:05:28.384Z,0.00
2017-09-23T00:06:28.512Z,0.00
2017-09-23T00:08:21.921Z,0.00
2017-09-23T00:09:21.961Z,0.00
2017-09-23T00:11:14.985Z,0.00
2017-09-23T00:12:15.016Z,0.00
2017-09-23T00:14:09.417Z,0.00
2017-09-23T00:15:09.449Z,0.00
2017-09-23T00:17:03.945Z,0.00
2017-09-23T00:18:03.945Z,0.00
2017-09-23T00:19:57.433Z,0.00
2017-09-23T00:20:57.442Z,0.00
2017-09-23T00:22:51.897Z,0.00
2017-09-23T00:23:51.929Z,0.00
2017-09-23T00:25:45.538Z,0.00
2017-09-23T00:26:45.537Z,0.00
2017-09-23T00:28:39.954Z,0.00
2017-09-23T00:29:39.986Z,0.00
2017-09-23T00:31:34.468Z,0.00
2017-09-23T00:32:34.492Z,0.00
2017-09-23T00:34:28.972Z,0.00
2017-09-23T00:35:29.099Z,0.00
2017-09-23T00:37:23.564Z,0.00
2017-09-23T00:38:23.588Z,0.00
2017-09-23T00:40:18.012Z,0.00
2017-09-23T00:41:18.108Z,0.00
2017-09-23T00:43:11.621Z,0.00
2017-09-23T00:44:11.628Z,0.00
2017-09-23T00:46:04.596Z,0.00
2017-09-23T00:47:04.668Z,0.00
2017-09-23T00:48:57.693Z,0.00
2017-09-23T00:49:57.629Z,0.00
2017-09-23T00:51:52.116Z,0.00
2017-09-23T00:52:52.157Z,0.00
2017-09-23T00:54:47.214Z,0.00
2017-09-23T00:55:47.316Z,0.00
2017-09-23T00:57:40.652Z,0.00
2017-09-23T00:58:40.701Z,0.00
2017-09-23T01:00:35.173Z,0.00
2017-09-23T01:01:35.229Z,0.00
2017-09-23T01:03:29.685Z,0.00
2017-09-23T01:04:29.677Z,0.00
2017-09-23T01:06:24.167Z,0.00
2017-09-23T01:07:24.277Z,0.00
2017-09-23T01:09:18.649Z,0.00
2017-09-23T01:10:18.669Z,0.00
2017-09-23T01:12:13.268Z,0.00
2017-09-23T01:13:13.261Z,0.00
2017-09-23T01:15:07.277Z,0.00
2017-09-23T01:16:06.277Z,0.00
2017-09-23T01:18:00.845Z,0.00
2017-09-23T01:19:00.765Z,0.00
2017-09-23T01:20:55.214Z,0.00
2017-09-23T01:21:55.261Z,0.00
2017-09-23T01:23:50.311Z,0.00
2017-09-23T01:24:50.334Z,0.00
2017-09-23T01:26:44.774Z,0.00
2017-09-23T01:27:44.910Z,0.00
2017-09-23T01:29:39.374Z,0.00
2017-09-23T01:30:39.334Z,0.00
2017-09-23T01:32:33.789Z,0.00
2017-09-23T01:33:33.886Z,0.00
2017-09-23T01:35:28.270Z,0.00
2017-09-23T01:36:28.342Z,0.00
2017-09-23T01:38:21.837Z,0.00
2017-09-23T01:39:21.829Z,0.00
2017-09-23T01:41:15.877Z,0.00
2017-09-23T01:42:15.917Z,0.00
2017-09-23T01:44:10.885Z,0.00
2017-09-23T01:45:10.830Z,0.00
2017-09-23T01:47:04.385Z,0.00
2017-09-23T01:48:04.446Z,0.00
2017-09-23T01:49:58.878Z,0.00
2017-09-23T01:50:59.030Z,0.00
2017-09-23T01:52:53.382Z,0.00
2017-09-23T01:53:53.518Z,0.00
2017-09-23T01:55:47.902Z,0.00
2017-09-23T01:56:47.878Z,0.00
2017-09-23T01:58:41.430Z,0.00
2017-09-23T01:59:41.486Z,0.00
2017-09-23T02:01:35.943Z,0.00
2017-09-23T02:02:35.990Z,0.00
2017-09-23T02:04:30.414Z,0.00
2017-09-23T02:05:30.526Z,0.00
2017-09-23T02:07:24.927Z,0.00
2017-09-23T02:08:24.951Z,0.00
2017-09-23T02:10:19.480Z,0.00
2017-09-23T02:11:19.471Z,0.00
2017-09-23T02:13:13.512Z,0.00
2017-09-23T02:14:13.583Z,0.00
2017-09-23T02:16:08.047Z,0.00
2017-09-23T02:17:08.031Z,0.00
2017-09-23T02:19:02.615Z,0.00
2017-09-23T02:20:02.663Z,0.00
2017-09-23T02:21:55.647Z,0.00
2017-09-23T02:22:55.711Z,0.00
2017-09-23T02:24:49.136Z,0.00
2017-09-23T02:25:49.168Z,0.00
2017-09-23T02:27:43.639Z,0.00
2017-09-23T02:28:43.655Z,0.00
2017-09-23T02:30:37.272Z,0.00
2017-09-23T02:31:37.263Z,0.00
2017-09-23T02:33:32.169Z,0.00
2017-09-23T02:34:32.287Z,0.00
2017-09-23T02:36:25.791Z,0.00
2017-09-23T02:37:25.791Z,0.00
2017-09-23T02:39:18.832Z,0.00
2017-09-23T02:40:18.847Z,0.00
2017-09-23T02:42:13.336Z,0.00
2017-09-23T02:43:13.304Z,0.00
2017-09-23T02:45:07.967Z,0.00
2017-09-23T02:46:07.793Z,0.00
2017-09-23T02:48:02.320Z,0.00
2017-09-23T02:49:02.328Z,0.00
2017-09-23T02:50:56.769Z,0.00
2017-09-23T02:51:56.857Z,0.00
2017-09-23T02:53:50.345Z,0.00
2017-09-23T02:54:50.377Z,0.00
2017-09-23T02:56:43.489Z,0.00
2017-09-23T02:57:43.416Z,0.00
2017-09-23T02:59:37.921Z,0.00
2017-09-23T03:00:37.977Z,0.00
2017-09-23T03:02:34.009Z,0.00
2017-09-23T03:03:33.977Z,0.00
2017-09-23T03:05:28.385Z,0.00
2017-09-23T03:06:28.505Z,0.00
2017-09-23T03:08:22.913Z,0.00
2017-09-23T03:09:22.962Z,0.00
2017-09-23T03:11:17.409Z,0.00
2017-09-23T03:12:17.488Z,0.00
2017-09-23T03:14:12.116Z,0.00
2017-09-23T03:15:12.152Z,0.00
2017-09-23T03:17:06.585Z,0.00
2017-09-23T03:18:06.601Z,0.00
2017-09-23T03:20:01.082Z,0.00
2017-09-23T03:21:01.125Z,0.00
2017-09-23T03:22:56.762Z,0.00
2017-09-23T03:23:56.778Z,0.00
2017-09-23T03:25:51.321Z,0.00
2017-09-23T03:26:51.329Z,0.00
2017-09-23T03:28:44.282Z,0.00
2017-09-23T03:29:44.297Z,0.00
2017-09-23T03:31:38.749Z,0.00
2017-09-23T03:32:38.778Z,0.00
2017-09-23T03:34:33.498Z,0.00
2017-09-23T03:35:33.282Z,0.00
2017-09-23T03:37:27.723Z,0.00
2017-09-23T03:38:27.802Z,0.00
2017-09-23T03:40:21.281Z,0.00
2017-09-23T03:41:21.369Z,0.00
2017-09-23T03:43:15.705Z,0.00
2017-09-23T03:44:15.745Z,0.00
2017-09-23T03:46:09.872Z,0.00
2017-09-23T03:47:09.858Z,0.00
2017-09-23T03:49:03.361Z,0.00
2017-09-23T03:50:03.313Z,0.00
2017-09-23T03:51:58.401Z,0.00
2017-09-23T03:53:00.370Z,0.00
2017-09-23T03:54:51.890Z,0.00
2017-09-23T03:55:51.945Z,0.00
2017-09-23T03:57:44.969Z,0.00
2017-09-23T03:58:44.898Z,0.00
2017-09-23T04:00:39.362Z,0.00
2017-09-23T04:01:39.378Z,0.00
2017-09-23T04:03:33.842Z,0.00
2017-09-23T04:04:33.875Z,0.00
2017-09-23T04:06:28.921Z,0.00
2017-09-23T04:07:29.018Z,0.00
2017-09-23T04:09:23.411Z,0.00
2017-09-23T04:10:23.450Z,0.00
2017-09-23T04:12:18.010Z,0.00
2017-09-23T04:13:18.035Z,0.00
2017-09-23T04:15:12.035Z,0.00
2017-09-23T04:16:12.035Z,0.00
2017-09-23T04:18:06.579Z,0.00
2017-09-23T04:19:06.547Z,0.00
2017-09-23T04:21:00.012Z,0.00
2017-09-23T04:22:00.091Z,0.00
2017-09-23T04:23:53.700Z,0.00
2017-09-23T04:24:53.644Z,0.00
2017-09-23T04:26:48.299Z,0.00
2017-09-23T04:27:48.259Z,0.00
2017-09-23T04:29:43.195Z,0.00
2017-09-23T04:30:43.195Z,0.00
2017-09-23T04:32:36.204Z,0.00
2017-09-23T04:33:36.244Z,0.00
2017-09-23T04:35:29.763Z,0.00
2017-09-23T04:36:29.796Z,0.00
2017-09-23T04:38:24.420Z,0.00
2017-09-23T04:39:24.341Z,0.00
2017-09-23T04:41:18.844Z,0.00
2017-09-23T04:42:18.796Z,0.00
2017-09-23T04:44:14.876Z,0.00
2017-09-23T04:45:14.884Z,0.00
2017-09-23T04:47:08.341Z,0.00
2017-09-23T04:48:08.425Z,0.00
2017-09-23T04:50:02.909Z,0.00
2017-09-23T04:51:02.996Z,0.00
2017-09-23T04:52:57.317Z,0.00
2017-09-23T04:53:57.357Z,0.00
2017-09-23T04:55:51.029Z,0.00
2017-09-23T04:56:50.989Z,4.00
2017-09-23T04:58:45.492Z,0.00
2017-09-23T04:59:45.474Z,4.00
2017-09-23T05:01:42.496Z,4.00
2017-09-23T05:02:42.532Z,4.00
2017-09-23T05:04:37.032Z,12.00
2017-09-23T05:05:37.104Z,12.00
2017-09-23T05:07:31.448Z,12.00
2017-09-23T05:08:31.488Z,20.00
2017-09-23T05:10:24.953Z,24.00
2017-09-23T05:11:24.970Z,28.00
2017-09-23T05:13:19.464Z,32.00
2017-09-23T05:14:18.536Z,40.00
2017-09-23T05:16:11.543Z,56.00
2017-09-23T05:17:11.584Z,56.00
2017-09-23T05:19:06.024Z,68.00
2017-09-23T05:20:06.039Z,80.00
2017-09-23T05:22:00.568Z,96.00
2017-09-23T05:23:00.632Z,112.00
2017-09-23T05:24:53.600Z,116.00
2017-09-23T05:25:53.656Z,120.00
2017-09-23T05:27:48.112Z,136.00
2017-09-23T05:28:48.136Z,152.00
2017-09-23T05:30:42.665Z,184.00
2017-09-23T05:31:42.800Z,188.00
2017-09-23T05:33:36.080Z,188.00
2017-09-23T05:34:36.112Z,212.00
2017-09-23T05:36:29.731Z,236.00
2017-09-23T05:37:30.633Z,260.00
2017-09-23T05:39:23.121Z,272.00
2017-09-23T05:40:23.521Z,272.00
2017-09-23T05:42:17.708Z,292.00
2017-09-23T05:43:17.724Z,320.00
2017-09-23T05:45:12.281Z,308.00
2017-09-23T05:46:12.209Z,316.00
2017-09-23T05:48:06.721Z,336.00
2017-09-23T05:49:06.706Z,348.00
2017-09-23T05:51:01.160Z,392.00
2017-09-23T05:52:02.161Z,412.00
2017-09-23T05:53:55.217Z,460.00
2017-09-23T05:54:55.241Z,460.00
2017-09-23T05:56:51.195Z,572.00
2017-09-23T05:57:51.217Z,616.00
2017-09-23T05:59:45.706Z,696.00
2017-09-23T06:00:45.721Z,760.00
2017-09-23T06:02:40.217Z,748.00
2017-09-23T06:03:40.225Z,756.00
2017-09-23T06:05:33.810Z,812.00
2017-09-23T06:06:33.817Z,820.00
2017-09-23T06:08:26.842Z,948.00
2017-09-23T06:09:26.841Z,1016.00
2017-09-23T06:11:20.290Z,1168.00
2017-09-23T06:12:20.321Z,1220.00
2017-09-23T06:14:14.802Z,1300.00
2017-09-23T06:15:14.818Z,1452.00
2017-09-23T06:17:09.306Z,1636.00
2017-09-23T06:18:09.338Z,1624.00
2017-09-23T06:20:03.797Z,1892.00
2017-09-23T06:21:03.834Z,2120.00
2017-09-23T06:22:58.434Z,1884.00
2017-09-23T06:23:58.434Z,1724.00
2017-09-23T06:25:51.435Z,1656.00
2017-09-23T06:26:51.459Z,1692.00
2017-09-23T06:28:45.891Z,1556.00
2017-09-23T06:29:45.947Z,1564.00
2017-09-23T06:31:40.426Z,1592.00
2017-09-23T06:32:40.506Z,1668.00
2017-09-23T06:34:34.899Z,1932.00
2017-09-23T06:35:34.923Z,1948.00
2017-09-23T06:37:29.427Z,1716.00
2017-09-23T06:38:29.451Z,1804.00
2017-09-23T06:40:23.923Z,1960.00
2017-09-23T06:41:23.971Z,2056.00
2017-09-23T06:43:18.469Z,2016.00
2017-09-23T06:44:18.451Z,2168.00
2017-09-23T06:46:12.891Z,2072.00
2017-09-23T06:47:12.947Z,2160.00
2017-09-23T06:49:06.603Z,2280.00
2017-09-23T06:50:06.555Z,2260.00
2017-09-23T06:52:00.997Z,2060.00
2017-09-23T06:53:01.084Z,1996.00
2017-09-23T06:54:55.523Z,2292.00
2017-09-23T06:55:55.532Z,2308.00
2017-09-23T06:57:50.020Z,2568.00
2017-09-23T06:58:50.084Z,2852.00
2017-09-23T07:00:44.500Z,2448.00
2017-09-23T07:01:44.549Z,2652.00
2017-09-23T07:03:39.012Z,2604.00
2017-09-23T07:04:39.030Z,2700.00
2017-09-23T07:06:32.524Z,2464.00
2017-09-23T07:07:32.533Z,2492.00
2017-09-23T07:09:26.991Z,2536.00
2017-09-23T07:10:27.021Z,2524.00
2017-09-23T07:12:23.077Z,2992.00
2017-09-23T07:13:22.109Z,3320.00
2017-09-23T07:15:15.540Z,4148.00
2017-09-23T07:16:15.581Z,4172.00
2017-09-23T07:18:09.053Z,4836.00
2017-09-23T07:19:09.069Z,5684.00
2017-09-23T07:21:02.029Z,6084.00
2017-09-23T07:22:02.071Z,5576.00
2017-09-23T07:23:56.558Z,5568.00
2017-09-23T07:24:56.573Z,5332.00
2017-09-23T07:26:50.101Z,5304.00
2017-09-23T07:27:50.197Z,4876.00
2017-09-23T07:29:44.613Z,4792.00
2017-09-23T07:30:44.637Z,6088.00
2017-09-23T07:32:40.701Z,7904.00
2017-09-23T07:33:40.726Z,8080.00
2017-09-23T07:35:33.686Z,11292.00
2017-09-23T07:36:33.749Z,9944.00
2017-09-23T07:38:28.325Z,13760.00
2017-09-23T07:39:28.310Z,10928.00
2017-09-23T07:41:21.773Z,9552.00
2017-09-23T07:42:21.806Z,9020.00
2017-09-23T07:44:16.287Z,12752.00
2017-09-23T07:45:16.302Z,8708.00
2017-09-23T07:47:10.781Z,11300.00
2017-09-23T07:48:10.813Z,16256.00
2017-09-23T07:50:05.318Z,8864.00
2017-09-23T07:51:05.310Z,9520.00
2017-09-23T07:53:01.391Z,8596.00
2017-09-23T07:54:01.406Z,15296.00
2017-09-23T07:55:54.894Z,19840.00
2017-09-23T07:56:54.895Z,20288.00
2017-09-23T07:58:49.358Z,19968.00
2017-09-23T07:59:49.391Z,20160.00
2017-09-23T08:01:43.879Z,19232.00
2017-09-23T08:02:43.919Z,21760.00
2017-09-23T08:04:38.350Z,22624.00
2017-09-23T08:05:38.399Z,23008.00
2017-09-23T08:07:32.879Z,23424.00
2017-09-23T08:08:32.896Z,23744.00
2017-09-23T08:10:27.383Z,22624.00
2017-09-23T08:11:27.423Z,21792.00
2017-09-23T08:13:20.887Z,24128.00
2017-09-23T08:14:20.905Z,24736.00
2017-09-23T08:16:15.367Z,25504.00
2017-09-23T08:17:15.408Z,26560.00
2017-09-23T08:19:09.911Z,27616.00
2017-09-23T08:20:09.911Z,28224.00
2017-09-23T08:22:03.367Z,29024.00
2017-09-23T08:23:03.407Z,29440.00
2017-09-23T08:24:57.007Z,30304.00
2017-09-23T08:25:57.040Z,30112.00
2017-09-23T08:27:50.047Z,30272.00
2017-09-23T08:28:50.039Z,31072.00
2017-09-23T08:30:43.056Z,30624.00
2017-09-23T08:31:43.056Z,32096.00
2017-09-23T08:33:36.504Z,32224.00
2017-09-23T08:34:36.568Z,27936.00
2017-09-23T08:36:31.040Z,13012.00
2017-09-23T08:37:31.056Z,14916.00
2017-09-23T08:39:24.624Z,15812.00
2017-09-23T08:40:24.672Z,32192.00
2017-09-23T08:42:17.664Z,30752.00
2017-09-23T08:43:17.672Z,31744.00
2017-09-23T08:45:10.640Z,24480.00
2017-09-23T08:46:10.720Z,23968.00
2017-09-23T08:48:05.168Z,38304.00
2017-09-23T08:49:05.184Z,27424.00
2017-09-23T08:50:59.664Z,20512.00
2017-09-23T08:51:59.705Z,19232.00
2017-09-23T08:53:54.193Z,12992.00
2017-09-23T08:54:54.209Z,14296.00
2017-09-23T08:56:48.681Z,17152.00
2017-09-23T08:57:48.728Z,16320.00
2017-09-23T08:59:43.225Z,23808.00
2017-09-23T09:00:43.238Z,21472.00
2017-09-23T09:02:37.710Z,18112.00
2017-09-23T09:03:37.753Z,13060.00
2017-09-23T09:05:32.265Z,15516.00
2017-09-23T09:06:32.273Z,16544.00
2017-09-23T09:08:26.729Z,11036.00
2017-09-23T09:09:26.953Z,12864.00
2017-09-23T09:11:20.297Z,14456.00
2017-09-23T09:12:20.321Z,17728.00
2017-09-23T09:14:13.858Z,24288.00
2017-09-23T09:15:13.875Z,32992.00
2017-09-23T09:17:08.377Z,8636.00
2017-09-23T09:18:08.401Z,10236.00
2017-09-23T09:20:01.946Z,14716.00
2017-09-23T09:21:01.985Z,18624.00
2017-09-23T09:22:55.447Z,11268.00
2017-09-23T09:23:55.529Z,11248.00
2017-09-23T09:25:49.953Z,11404.00
2017-09-23T09:26:49.988Z,10548.00
2017-09-23T09:28:44.458Z,8396.00
2017-09-23T09:29:44.602Z,7208.00
2017-09-23T09:31:38.082Z,6628.00
2017-09-23T09:32:38.370Z,7576.00
2017-09-23T09:34:31.584Z,8700.00
2017-09-23T09:35:31.848Z,8796.00
2017-09-23T09:37:25.200Z,11888.00
2017-09-23T09:38:25.200Z,18592.00
2017-09-23T09:40:18.672Z,37152.00
2017-09-23T09:41:18.754Z,18784.00
2017-09-23T09:43:12.296Z,32576.00
2017-09-23T09:44:13.280Z,34816.00
2017-09-23T09:46:05.369Z,24512.00
2017-09-23T09:47:05.344Z,19168.00
2017-09-23T09:48:58.832Z,14148.00
2017-09-23T09:49:58.864Z,25408.00
2017-09-23T09:51:53.345Z,42272.00
2017-09-23T09:52:53.393Z,45152.00
2017-09-23T09:54:46.904Z,43680.00
2017-09-23T09:55:46.961Z,41184.00
2017-09-23T09:57:41.425Z,39872.00
2017-09-23T09:58:41.457Z,41728.00
2017-09-23T10:00:34.945Z,43360.00
2017-09-23T10:01:34.969Z,25056.00
2017-09-23T10:03:29.457Z,32288.00
2017-09-23T10:04:29.505Z,40864.00
2017-09-23T10:06:24.009Z,42144.00
2017-09-23T10:07:24.026Z,43296.00
2017-09-23T10:09:18.497Z,43968.00
2017-09-23T10:10:18.545Z,45632.00
2017-09-23T10:12:12.105Z,46816.00
2017-09-23T10:13:12.121Z,32704.00
2017-09-23T10:15:05.169Z,14652.00
2017-09-23T10:16:05.177Z,45344.00
2017-09-23T10:17:59.657Z,7196.00
2017-09-23T10:18:59.698Z,6000.00
2017-09-23T10:20:54.210Z,4628.00
2017-09-23T10:21:54.225Z,4360.00
2017-09-23T10:23:47.698Z,4384.00
2017-09-23T10:24:47.729Z,4372.00
2017-09-23T10:26:42.233Z,5048.00
2017-09-23T10:27:42.255Z,5264.00
2017-09-23T10:29:35.795Z,5356.00
2017-09-23T10:30:35.826Z,5692.00
2017-09-23T10:32:30.322Z,7288.00
2017-09-23T10:33:30.370Z,15036.00
2017-09-23T10:35:23.866Z,35232.00
2017-09-23T10:36:23.923Z,16064.00
2017-09-23T10:38:18.419Z,11456.00
2017-09-23T10:39:18.443Z,10120.00
2017-09-23T10:41:11.906Z,10484.00
2017-09-23T10:42:11.940Z,12192.00
2017-09-23T10:44:06.452Z,55840.00
2017-09-23T10:45:06.487Z,15420.00
2017-09-23T10:47:01.994Z,26912.00
2017-09-23T10:48:02.028Z,20032.00
2017-09-23T10:49:56.506Z,15580.00
2017-09-23T10:50:56.522Z,25152.00
2017-09-23T10:52:50.116Z,35168.00
2017-09-23T10:53:50.116Z,21120.00
2017-09-23T10:55:43.587Z,56096.00
2017-09-23T10:56:43.626Z,54752.00
2017-09-23T10:58:37.651Z,15788.00
2017-09-23T10:59:37.203Z,17600.00
2017-09-23T11:01:30.203Z,38912.00
2017-09-23T11:02:30.252Z,49632.00
2017-09-23T11:04:30.755Z,23712.00
2017-09-23T11:05:23.260Z,19424.00
2017-09-23T11:07:16.252Z,18976.00
2017-09-23T11:08:17.292Z,13092.00
2017-09-23T11:10:09.292Z,15376.00
2017-09-23T11:11:10.403Z,15248.00
2017-09-23T11:13:02.324Z,18112.00
2017-09-23T11:14:02.356Z,21760.00
2017-09-23T11:15:55.380Z,22560.00
2017-09-23T11:16:55.388Z,32320.00
2017-09-23T11:18:48.861Z,15916.00
2017-09-23T11:19:48.900Z,15544.00
2017-09-23T11:21:43.385Z,20896.00
2017-09-23T11:22:43.405Z,18144.00
2017-09-23T11:24:37.925Z,18208.00
2017-09-23T11:25:37.932Z,16320.00
2017-09-23T11:27:32.397Z,11328.00
2017-09-23T11:28:32.444Z,10316.00
2017-09-23T11:30:26.933Z,9568.00
2017-09-23T11:31:26.949Z,9004.00
2017-09-23T11:33:21.429Z,8004.00
2017-09-23T11:34:21.477Z,7796.00
2017-09-23T11:36:15.965Z,8656.00
2017-09-23T11:37:16.021Z,10560.00
2017-09-23T11:39:10.479Z,13388.00
2017-09-23T11:40:10.509Z,15924.00
2017-09-23T11:42:05.006Z,18720.00
2017-09-23T11:43:05.013Z,15244.00
2017-09-23T11:44:58.485Z,14784.00
2017-09-23T11:45:58.518Z,12580.00
2017-09-23T11:47:52.091Z,9904.00
2017-09-23T11:48:52.101Z,9544.00
2017-09-23T11:50:45.093Z,7264.00
2017-09-23T11:51:45.134Z,6348.00
2017-09-23T11:53:38.141Z,6176.00
2017-09-23T11:54:38.158Z,6504.00
2017-09-23T11:56:31.678Z,6788.00
2017-09-23T11:57:31.742Z,7060.00
2017-09-23T11:59:26.318Z,7824.00
2017-09-23T12:00:26.342Z,14076.00
2017-09-23T12:02:19.918Z,15132.00
2017-09-23T12:03:19.943Z,21312.00
2017-09-23T12:05:12.894Z,22464.00
2017-09-23T12:06:12.974Z,22176.00
2017-09-23T12:08:07.487Z,21664.00
2017-09-23T12:09:07.471Z,21184.00
2017-09-23T12:11:01.015Z,20256.00
2017-09-23T12:12:01.057Z,20128.00
2017-09-23T12:13:55.586Z,19840.00
2017-09-23T12:14:55.583Z,19936.00
2017-09-23T12:16:50.063Z,19776.00
2017-09-23T12:17:50.111Z,20064.00
2017-09-23T12:19:43.736Z,20128.00
2017-09-23T12:20:43.639Z,19712.00
2017-09-23T12:22:37.159Z,19392.00
2017-09-23T12:23:37.232Z,19392.00
2017-09-23T12:25:31.695Z,19072.00
2017-09-23T12:26:31.735Z,18976.00
2017-09-23T12:28:25.247Z,18880.00
2017-09-23T12:29:25.279Z,10884.00
2017-09-23T12:31:19.784Z,15264.00
2017-09-23T12:32:19.842Z,18976.00
2017-09-23T12:34:14.344Z,8992.00
2017-09-23T12:35:14.343Z,8364.00
2017-09-23T12:37:08.847Z,8444.00
2017-09-23T12:38:08.904Z,7628.00
2017-09-23T12:40:03.392Z,7656.00
2017-09-23T12:41:03.408Z,7316.00
2017-09-23T12:42:58.016Z,6612.00
2017-09-23T12:43:58.968Z,6872.00
2017-09-23T12:45:51.552Z,14236.00
2017-09-23T12:46:51.584Z,16064.00
2017-09-23T12:48:46.120Z,9336.00
2017-09-23T12:49:46.096Z,9304.00
2017-09-23T12:51:39.584Z,7128.00
2017-09-23T12:52:39.633Z,5748.00
2017-09-23T12:54:33.216Z,4052.00
2017-09-23T12:55:33.216Z,3696.00
2017-09-23T12:57:26.752Z,3824.00
2017-09-23T12:58:26.784Z,3752.00
2017-09-23T13:00:20.312Z,3880.00
2017-09-23T13:01:20.329Z,3808.00
2017-09-23T13:03:14.866Z,3988.00
2017-09-23T13:04:14.915Z,4104.00
2017-09-23T13:06:08.402Z,4580.00
2017-09-23T13:07:08.426Z,4776.00
2017-09-23T13:09:02.905Z,5188.00
2017-09-23T13:10:02.993Z,5144.00
2017-09-23T13:11:57.441Z,4752.00
2017-09-23T13:12:57.453Z,4512.00
2017-09-23T13:14:51.978Z,4788.00
2017-09-23T13:15:51.977Z,5312.00
2017-09-23T13:17:46.489Z,5972.00
2017-09-23T13:18:46.505Z,5312.00
2017-09-23T13:20:40.994Z,4924.00
2017-09-23T13:21:41.051Z,4728.00
2017-09-23T13:23:34.521Z,4700.00
2017-09-23T13:24:34.513Z,5008.00
2017-09-23T13:26:27.501Z,5216.00
2017-09-23T13:27:27.538Z,5704.00
2017-09-23T13:29:21.131Z,5984.00
2017-09-23T13:30:21.122Z,5916.00
2017-09-23T13:32:15.602Z,5884.00
2017-09-23T13:33:15.635Z,5916.00
2017-09-23T13:35:09.218Z,6404.00
2017-09-23T13:36:09.218Z,6808.00
2017-09-23T13:38:03.850Z,6632.00
2017-09-23T13:39:03.802Z,6600.00
2017-09-23T13:40:57.338Z,6408.00
2017-09-23T13:41:57.378Z,5852.00
2017-09-23T13:43:50.395Z,5500.00
2017-09-23T13:44:50.435Z,5272.00
2017-09-23T13:46:43.899Z,5244.00
2017-09-23T13:47:43.955Z,5960.00
2017-09-23T13:49:36.930Z,5484.00
2017-09-23T13:50:36.939Z,5856.00
2017-09-23T13:52:29.931Z,6056.00
2017-09-23T13:53:29.963Z,5824.00
2017-09-23T13:55:22.954Z,5032.00
2017-09-23T13:56:22.971Z,5612.00
2017-09-23T13:58:16.027Z,5896.00
2017-09-23T13:59:16.019Z,5980.00
2017-09-23T14:01:08.987Z,6248.00
2017-09-23T14:02:09.027Z,6584.00
2017-09-23T14:04:02.020Z,6424.00
2017-09-23T14:05:02.028Z,6040.00
2017-09-23T14:06:55.020Z,5612.00
2017-09-23T14:07:55.100Z,5432.00
2017-09-23T14:09:48.083Z,5260.00
2017-09-23T14:10:48.091Z,5196.00
2017-09-23T14:12:41.076Z,5004.00
2017-09-23T14:13:41.091Z,4936.00
2017-09-23T14:15:34.139Z,4832.00
2017-09-23T14:16:34.124Z,4796.00
2017-09-23T14:18:27.629Z,4724.00
2017-09-23T14:19:27.676Z,4680.00
2017-09-23T14:21:20.656Z,4716.00
2017-09-23T14:22:20.679Z,4848.00
2017-09-23T14:24:13.709Z,5112.00
2017-09-23T14:25:15.677Z,5136.00
2017-09-23T14:27:06.684Z,5060.00
2017-09-23T14:28:06.733Z,4984.00
2017-09-23T14:29:59.716Z,4792.00
2017-09-23T14:30:59.756Z,4568.00
2017-09-23T14:32:52.757Z,4096.00
2017-09-23T14:33:52.821Z,3808.00
2017-09-23T14:35:45.789Z,3484.00
2017-09-23T14:36:45.781Z,3232.00
2017-09-23T14:38:38.805Z,2920.00
2017-09-23T14:39:38.789Z,2860.00
2017-09-23T14:41:31.925Z,2816.00
2017-09-23T14:42:31.837Z,2708.00
2017-09-23T14:44:24.789Z,2776.00
2017-09-23T14:45:24.845Z,2884.00
2017-09-23T14:47:17.901Z,2852.00
2017-09-23T14:48:17.925Z,2888.00
2017-09-23T14:50:10.879Z,2404.00
2017-09-23T14:51:10.915Z,2384.00
2017-09-23T14:53:03.901Z,2344.00
2017-09-23T14:54:03.901Z,2336.00
2017-09-23T14:55:56.877Z,2348.00
2017-09-23T14:56:56.934Z,2376.00
2017-09-23T14:58:49.981Z,2376.00
2017-09-23T14:59:49.966Z,2320.00
2017-09-23T15:01:42.894Z,2228.00
2017-09-23T15:02:42.958Z,2208.00
2017-09-23T15:04:35.976Z,2360.00
2017-09-23T15:05:35.998Z,2496.00
2017-09-23T15:07:28.918Z,2940.00
2017-09-23T15:08:28.999Z,3080.00
2017-09-23T15:10:22.014Z,3156.00
2017-09-23T15:11:22.006Z,3136.00
2017-09-23T15:13:15.454Z,3212.00
2017-09-23T15:14:15.494Z,3292.00
2017-09-23T15:16:09.039Z,3316.00
2017-09-23T15:17:09.079Z,3228.00
2017-09-23T15:19:02.106Z,3160.00
2017-09-23T15:20:02.115Z,3180.00
2017-09-23T15:21:55.151Z,3336.00
2017-09-23T15:22:55.143Z,3516.00
2017-09-23T15:24:49.071Z,3784.00
2017-09-23T15:25:48.160Z,3760.00
2017-09-23T15:27:41.135Z,3888.00
2017-09-23T15:28:41.144Z,4648.00
2017-09-23T15:30:35.782Z,5164.00
2017-09-23T15:31:35.816Z,4984.00
2017-09-23T15:33:30.303Z,2980.00
2017-09-23T15:34:30.328Z,3036.00
2017-09-23T15:36:24.816Z,2168.00
2017-09-23T15:37:24.839Z,3096.00
2017-09-23T15:39:18.391Z,3744.00
2017-09-23T15:40:18.416Z,2568.00
2017-09-23T15:42:11.480Z,2124.00
2017-09-23T15:43:11.463Z,2080.00
2017-09-23T15:45:05.929Z,2008.00
2017-09-23T15:46:06.312Z,1964.00
2017-09-23T15:48:00.048Z,1860.00
2017-09-23T15:49:00.050Z,1796.00
2017-09-23T15:50:54.576Z,1700.00
2017-09-23T15:51:54.824Z,1668.00
2017-09-23T15:53:48.088Z,1616.00
2017-09-23T15:54:48.136Z,1608.00
2017-09-23T15:56:42.688Z,1584.00
2017-09-23T15:57:43.632Z,1560.00
2017-09-23T15:59:36.152Z,1512.00
2017-09-23T16:00:35.650Z,1500.00
2017-09-23T16:02:28.673Z,1484.00
2017-09-23T16:03:28.713Z,1468.00
2017-09-23T16:05:21.685Z,1432.00
2017-09-23T16:06:22.657Z,1404.00
2017-09-23T16:08:16.161Z,1336.00
2017-09-23T16:09:16.185Z,1296.00
2017-09-23T16:11:09.785Z,1236.00
2017-09-23T16:12:09.849Z,1220.00
2017-09-23T16:14:04.301Z,1172.00
2017-09-23T16:15:04.306Z,1144.00
2017-09-23T16:16:57.881Z,1096.00
2017-09-23T16:17:57.906Z,1072.00
2017-09-23T16:19:52.329Z,1040.00
2017-09-23T16:20:53.913Z,1028.00
2017-09-23T16:22:46.858Z,996.00
2017-09-23T16:23:47.513Z,976.00
2017-09-23T16:25:40.938Z,948.00
2017-09-23T16:26:40.930Z,936.00
2017-09-23T16:28:33.918Z,912.00
2017-09-23T16:29:33.938Z,900.00
2017-09-23T16:31:26.946Z,876.00
2017-09-23T16:32:26.957Z,856.00
2017-09-23T16:34:19.970Z,832.00
2017-09-23T16:35:19.963Z,820.00
2017-09-23T16:37:14.451Z,792.00
2017-09-23T16:38:14.475Z,776.00
2017-09-23T16:40:08.034Z,756.00
2017-09-23T16:41:08.050Z,740.00
2017-09-23T16:43:01.074Z,712.00
2017-09-23T16:44:01.019Z,700.00
2017-09-23T16:45:54.563Z,676.00
2017-09-23T16:46:54.778Z,664.00
2017-09-23T16:48:48.115Z,640.00
2017-09-23T16:49:48.154Z,628.00
2017-09-23T16:51:41.130Z,600.00
2017-09-23T16:52:41.139Z,580.00
2017-09-23T16:56:13.220Z,528.00
2017-09-23T16:57:13.086Z,508.00
2017-09-23T16:59:06.079Z,480.00
2017-09-23T17:00:06.148Z,464.00
2017-09-23T17:01:59.108Z,432.00
2017-09-23T17:03:00.119Z,416.00
2017-09-23T17:04:52.083Z,384.00
2017-09-23T17:05:52.115Z,372.00
2017-09-23T17:07:45.603Z,340.00
2017-09-23T17:08:45.651Z,324.00
2017-09-23T17:10:41.620Z,292.00
2017-09-23T17:11:41.628Z,276.00
2017-09-23T17:13:36.252Z,252.00
2017-09-23T17:14:36.140Z,236.00
2017-09-23T17:16:29.676Z,212.00
2017-09-23T17:17:29.716Z,200.00
2017-09-23T17:19:24.204Z,176.00
2017-09-23T17:20:24.204Z,164.00
2017-09-23T17:22:19.252Z,140.00
2017-09-23T17:23:19.286Z,132.00
2017-09-23T17:25:13.749Z,108.00
2017-09-23T17:26:13.748Z,100.00
2017-09-23T17:28:08.341Z,84.00
2017-09-23T17:29:08.349Z,80.00
2017-09-23T17:31:01.925Z,64.00
2017-09-23T17:32:01.957Z,56.00
2017-09-23T17:33:55.365Z,48.00
2017-09-23T17:34:55.444Z,40.00
2017-09-23T17:36:48.969Z,32.00
2017-09-23T17:37:48.988Z,24.00
2017-09-23T17:39:43.436Z,20.00
2017-09-23T17:40:43.549Z,16.00
2017-09-23T17:42:37.993Z,12.00
2017-09-23T17:43:37.977Z,12.00
2017-09-23T17:45:32.465Z,8.00
2017-09-23T17:46:32.629Z,4.00
2017-09-23T17:48:26.005Z,4.00
2017-09-23T17:49:25.989Z,4.00
2017-09-23T17:51:20.461Z,4.00
2017-09-23T17:52:20.477Z,4.00
2017-09-23T17:54:14.941Z,0.00
2017-09-23T17:55:15.049Z,0.00
2017-09-23T17:57:09.469Z,0.00
2017-09-23T17:58:09.542Z,0.00
2017-09-23T18:00:04.038Z,0.00
2017-09-23T18:01:04.118Z,0.00